sensor_id;sensor_type;location;lat;lon;timestamp;pressure;altitude;pressure_sealevel;temperature;humidity
52105;BME280;38103;42.776;23.112;2023-04-23T00:00:37;93924.31;;;4.65;100.00
52105;BME280;38103;42.776;23.112;2023-04-23T00:03:06;93925.53;;;4.83;100.00
52105;BME280;38103;42.776;23.112;2023-04-23T00:05:37;93915.47;;;4.73;100.00
52105;BME280;38103;42.776;23.112;2023-04-23T00:08:03;93919.50;;;4.69;100.00
52105;BME280;38103;42.776;23.112;2023-04-23T00:10:30;93914.22;;;4.55;100.00
52105;BME280;38103;42.776;23.112;2023-04-23T00:12:56;93894.84;;;4.43;100.00
52105;BME280;38103;42.776;23.112;2023-04-23T00:15:21;93910.56;;;4.43;100.00
52105;BME280;38103;42.776;23.112;2023-04-23T00:17:47;93910.28;;;4.31;100.00
52105;BME280;38103;42.776;23.112;2023-04-23T00:20:14;93905.28;;;4.29;100.00
52105;BME280;38103;42.776;23.112;2023-04-23T00:22:41;93908.50;;;4.31;100.00
52105;BME280;38103;42.776;23.112;2023-04-23T00:25:07;93919.00;;;4.45;100.00
52105;BME280;38103;42.776;23.112;2023-04-23T00:27:32;93916.22;;;4.60;100.00
52105;BME280;38103;42.776;23.112;2023-04-23T00:29:58;93911.81;;;4.67;100.00
52105;BME280;38103;42.776;23.112;2023-04-23T00:32:23;93919.50;;;4.76;100.00
52105;BME280;38103;42.776;23.112;2023-04-23T00:34:48;93915.44;;;4.66;100.00
52105;BME280;38103;42.776;23.112;2023-04-23T00:37:14;93896.81;;;4.34;100.00
52105;BME280;38103;42.776;23.112;2023-04-23T00:39:40;93911.69;;;4.20;100.00
52105;BME280;38103;42.776;23.112;2023-04-23T00:42:06;93897.09;;;3.97;100.00
52105;BME280;38103;42.776;23.112;2023-04-23T00:44:37;93913.63;;;4.04;100.00
52105;BME280;38103;42.776;23.112;2023-04-23T00:47:02;93912.84;;;4.10;100.00
52105;BME280;38103;42.776;23.112;2023-04-23T00:49:28;93920.16;;;4.22;100.00
52105;BME280;38103;42.776;23.112;2023-04-23T00:51:53;93914.53;;;4.25;100.00
52105;BME280;38103;42.776;23.112;2023-04-23T00:54:19;93882.25;;;4.04;100.00
52105;BME280;38103;42.776;23.112;2023-04-23T00:56:47;93914.91;;;4.22;100.00
52105;BME280;38103;42.776;23.112;2023-04-23T00:59:13;93918.44;;;4.07;100.00
52105;BME280;38103;42.776;23.112;2023-04-23T01:01:38;93910.75;;;3.92;100.00
52105;BME280;38103;42.776;23.112;2023-04-23T01:04:05;93915.09;;;3.78;100.00
52105;BME280;38103;42.776;23.112;2023-04-23T01:06:32;93912.03;;;3.67;100.00
52105;BME280;38103;42.776;23.112;2023-04-23T01:08:57;93924.63;;;3.57;100.00
52105;BME280;38103;42.776;23.112;2023-04-23T01:11:23;93915.84;;;3.65;100.00
52105;BME280;38103;42.776;23.112;2023-04-23T01:13:49;93880.72;;;3.45;100.00
52105;BME280;38103;42.776;23.112;2023-04-23T01:16:14;93916.72;;;3.79;100.00
52105;BME280;38103;42.776;23.112;2023-04-23T01:18:40;93920.72;;;3.75;100.00
52105;BME280;38103;42.776;23.112;2023-04-23T01:21:06;93920.34;;;3.78;100.00
52105;BME280;38103;42.776;23.112;2023-04-23T01:23:32;93921.16;;;3.78;100.00
52105;BME280;38103;42.776;23.112;2023-04-23T01:25:58;93917.13;;;3.76;100.00
52105;BME280;38103;42.776;23.112;2023-04-23T01:28:23;93912.25;;;3.73;100.00
52105;BME280;38103;42.776;23.112;2023-04-23T01:30:50;93913.84;;;3.74;100.00
52105;BME280;38103;42.776;23.112;2023-04-23T01:33:16;93919.25;;;3.65;100.00
52105;BME280;38103;42.776;23.112;2023-04-23T01:35:42;93922.63;;;3.59;100.00
52105;BME280;38103;42.776;23.112;2023-04-23T01:38:09;93916.94;;;3.49;100.00
52105;BME280;38103;42.776;23.112;2023-04-23T01:40:36;93893.09;;;3.30;100.00
52105;BME280;38103;42.776;23.112;2023-04-23T01:43:02;93882.56;;;3.16;100.00
52105;BME280;38103;42.776;23.112;2023-04-23T01:45:29;93923.69;;;3.36;100.00
52105;BME280;38103;42.776;23.112;2023-04-23T01:47:55;93918.84;;;3.33;100.00
52105;BME280;38103;42.776;23.112;2023-04-23T01:50:21;93926.06;;;3.31;100.00
52105;BME280;38103;42.776;23.112;2023-04-23T01:52:49;93923.03;;;3.27;100.00
52105;BME280;38103;42.776;23.112;2023-04-23T01:55:15;93920.22;;;3.29;100.00
52105;BME280;38103;42.776;23.112;2023-04-23T01:57:40;93919.59;;;3.27;100.00
52105;BME280;38103;42.776;23.112;2023-04-23T02:00:08;93915.38;;;3.26;100.00
52105;BME280;38103;42.776;23.112;2023-04-23T02:02:36;93922.72;;;3.15;100.00
52105;BME280;38103;42.776;23.112;2023-04-23T02:05:02;93924.69;;;3.06;100.00
52105;BME280;38103;42.776;23.112;2023-04-23T02:07:32;93915.00;;;3.07;100.00
52105;BME280;38103;42.776;23.112;2023-04-23T02:09:58;93919.00;;;3.03;100.00
52105;BME280;38103;42.776;23.112;2023-04-23T02:12:23;93921.88;;;3.08;100.00
52105;BME280;38103;42.776;23.112;2023-04-23T02:14:49;93921.13;;;3.14;100.00
52105;BME280;38103;42.776;23.112;2023-04-23T02:17:15;93923.97;;;3.19;100.00
52105;BME280;38103;42.776;23.112;2023-04-23T02:19:40;93922.22;;;3.27;100.00
52105;BME280;38103;42.776;23.112;2023-04-23T02:22:06;93923.06;;;3.34;100.00
52105;BME280;38103;42.776;23.112;2023-04-23T02:24:32;93920.88;;;3.38;100.00
52105;BME280;38103;42.776;23.112;2023-04-23T02:26:57;93918.94;;;3.46;100.00
52105;BME280;38103;42.776;23.112;2023-04-23T02:29:23;93923.41;;;3.53;100.00
52105;BME280;38103;42.776;23.112;2023-04-23T02:31:48;93929.13;;;3.63;100.00
52105;BME280;38103;42.776;23.112;2023-04-23T02:34:14;93917.63;;;3.64;100.00
52105;BME280;38103;42.776;23.112;2023-04-23T02:36:39;93918.78;;;3.55;100.00
52105;BME280;38103;42.776;23.112;2023-04-23T02:39:04;93916.94;;;3.49;100.00
52105;BME280;38103;42.776;23.112;2023-04-23T02:41:30;93921.41;;;3.55;100.00
52105;BME280;38103;42.776;23.112;2023-04-23T02:43:55;93927.25;;;3.57;100.00
52105;BME280;38103;42.776;23.112;2023-04-23T02:46:21;93924.25;;;3.60;100.00
52105;BME280;38103;42.776;23.112;2023-04-23T02:48:46;93935.06;;;3.50;100.00
52105;BME280;38103;42.776;23.112;2023-04-23T02:51:12;93937.38;;;3.38;100.00
52105;BME280;38103;42.776;23.112;2023-04-23T02:53:37;93931.66;;;3.28;100.00
52105;BME280;38103;42.776;23.112;2023-04-23T02:56:03;93930.06;;;3.27;100.00
52105;BME280;38103;42.776;23.112;2023-04-23T02:58:29;93936.66;;;3.22;100.00
52105;BME280;38103;42.776;23.112;2023-04-23T03:00:54;93932.19;;;3.16;100.00
52105;BME280;38103;42.776;23.112;2023-04-23T03:03:20;93927.56;;;3.18;100.00
52105;BME280;38103;42.776;23.112;2023-04-23T03:05:46;93932.22;;;3.23;100.00
52105;BME280;38103;42.776;23.112;2023-04-23T03:08:11;93937.66;;;3.21;100.00
52105;BME280;38103;42.776;23.112;2023-04-23T03:10:36;93937.78;;;3.13;100.00
52105;BME280;38103;42.776;23.112;2023-04-23T03:13:02;93905.69;;;2.97;100.00
52105;BME280;38103;42.776;23.112;2023-04-23T03:15:27;93933.28;;;3.07;100.00
52105;BME280;38103;42.776;23.112;2023-04-23T03:17:53;93937.41;;;2.94;100.00
52105;BME280;38103;42.776;23.112;2023-04-23T03:20:19;93877.00;;;2.53;100.00
52105;BME280;38103;42.776;23.112;2023-04-23T03:22:44;93899.75;;;2.60;100.00
52105;BME280;38103;42.776;23.112;2023-04-23T03:25:10;93940.53;;;2.83;100.00
52105;BME280;38103;42.776;23.112;2023-04-23T03:27:38;93932.00;;;2.74;100.00
52105;BME280;38103;42.776;23.112;2023-04-23T03:30:03;93938.97;;;2.66;100.00
52105;BME280;38103;42.776;23.112;2023-04-23T03:32:29;93932.31;;;2.64;100.00
52105;BME280;38103;42.776;23.112;2023-04-23T03:34:54;93930.97;;;2.68;100.00
52105;BME280;38103;42.776;23.112;2023-04-23T03:37:20;93930.81;;;2.76;100.00
52105;BME280;38103;42.776;23.112;2023-04-23T03:39:45;93933.81;;;2.95;100.00
52105;BME280;38103;42.776;23.112;2023-04-23T03:42:10;93922.34;;;3.18;100.00
52105;BME280;38103;42.776;23.112;2023-04-23T03:44:36;93940.59;;;3.40;100.00
52105;BME280;38103;42.776;23.112;2023-04-23T03:47:01;93934.34;;;3.63;100.00
52105;BME280;38103;42.776;23.112;2023-04-23T03:49:27;93940.78;;;3.67;100.00
52105;BME280;38103;42.776;23.112;2023-04-23T03:51:53;93939.91;;;3.89;100.00
52105;BME280;38103;42.776;23.112;2023-04-23T03:54:18;93943.97;;;3.98;100.00
52105;BME280;38103;42.776;23.112;2023-04-23T03:56:43;93946.81;;;3.97;100.00
52105;BME280;38103;42.776;23.112;2023-04-23T03:59:10;93942.19;;;3.99;100.00
52105;BME280;38103;42.776;23.112;2023-04-23T04:01:36;93935.41;;;4.11;100.00
52105;BME280;38103;42.776;23.112;2023-04-23T04:04:01;93946.38;;;4.35;100.00
52105;BME280;38103;42.776;23.112;2023-04-23T04:06:27;93948.25;;;4.55;100.00
52105;BME280;38103;42.776;23.112;2023-04-23T04:08:52;93942.84;;;4.77;100.00
52105;BME280;38103;42.776;23.112;2023-04-23T04:11:17;93947.94;;;4.99;100.00
52105;BME280;38103;42.776;23.112;2023-04-23T04:13:43;93944.53;;;5.19;100.00
52105;BME280;38103;42.776;23.112;2023-04-23T04:16:08;93950.56;;;5.27;100.00
52105;BME280;38103;42.776;23.112;2023-04-23T04:18:34;93949.19;;;5.51;100.00
52105;BME280;38103;42.776;23.112;2023-04-23T04:20:59;93954.56;;;5.90;100.00
52105;BME280;38103;42.776;23.112;2023-04-23T04:23:25;93950.84;;;6.32;100.00
52105;BME280;38103;42.776;23.112;2023-04-23T04:25:50;93963.22;;;6.71;100.00
52105;BME280;38103;42.776;23.112;2023-04-23T04:28:20;93960.19;;;7.07;100.00
52105;BME280;38103;42.776;23.112;2023-04-23T04:30:45;93963.97;;;7.43;100.00
52105;BME280;38103;42.776;23.112;2023-04-23T04:33:13;93965.38;;;7.71;100.00
52105;BME280;38103;42.776;23.112;2023-04-23T04:35:39;93968.22;;;7.96;100.00
52105;BME280;38103;42.776;23.112;2023-04-23T04:38:04;93971.88;;;8.13;100.00
52105;BME280;38103;42.776;23.112;2023-04-23T04:40:29;93978.56;;;8.35;100.00
52105;BME280;38103;42.776;23.112;2023-04-23T04:42:55;93976.94;;;8.53;100.00
52105;BME280;38103;42.776;23.112;2023-04-23T04:45:21;93977.41;;;8.68;100.00
52105;BME280;38103;42.776;23.112;2023-04-23T04:47:47;93979.16;;;8.87;100.00
52105;BME280;38103;42.776;23.112;2023-04-23T04:50:12;93975.06;;;8.91;100.00
52105;BME280;38103;42.776;23.112;2023-04-23T04:52:38;93984.00;;;8.90;100.00
52105;BME280;38103;42.776;23.112;2023-04-23T04:55:03;93965.91;;;8.63;100.00
52105;BME280;38103;42.776;23.112;2023-04-23T04:57:31;93984.69;;;9.16;100.00
52105;BME280;38103;42.776;23.112;2023-04-23T04:59:56;93982.81;;;9.47;100.00
52105;BME280;38103;42.776;23.112;2023-04-23T05:02:22;93985.22;;;9.49;100.00
52105;BME280;38103;42.776;23.112;2023-04-23T05:04:47;93982.25;;;9.45;100.00
52105;BME280;38103;42.776;23.112;2023-04-23T05:07:13;93981.03;;;9.84;100.00
52105;BME280;38103;42.776;23.112;2023-04-23T05:09:38;93989.16;;;9.70;100.00
52105;BME280;38103;42.776;23.112;2023-04-23T05:12:03;93988.41;;;8.96;100.00
52105;BME280;38103;42.776;23.112;2023-04-23T05:14:32;93992.53;;;8.73;100.00
52105;BME280;38103;42.776;23.112;2023-04-23T05:16:57;93991.69;;;8.60;100.00
52105;BME280;38103;42.776;23.112;2023-04-23T05:19:22;93987.94;;;8.68;100.00
52105;BME280;38103;42.776;23.112;2023-04-23T05:21:48;93992.41;;;8.68;100.00
52105;BME280;38103;42.776;23.112;2023-04-23T05:24:13;94000.72;;;8.46;100.00
52105;BME280;38103;42.776;23.112;2023-04-23T05:26:39;94003.03;;;8.35;100.00
52105;BME280;38103;42.776;23.112;2023-04-23T05:29:04;93992.25;;;7.80;100.00
52105;BME280;38103;42.776;23.112;2023-04-23T05:31:29;93952.69;;;7.87;100.00
52105;BME280;38103;42.776;23.112;2023-04-23T05:33:56;93992.94;;;8.13;100.00
52105;BME280;38103;42.776;23.112;2023-04-23T05:36:21;94007.69;;;7.96;100.00
52105;BME280;38103;42.776;23.112;2023-04-23T05:38:46;93976.97;;;7.89;100.00
52105;BME280;38103;42.776;23.112;2023-04-23T05:41:12;94006.50;;;8.36;100.00
52105;BME280;38103;42.776;23.112;2023-04-23T05:43:37;94016.66;;;8.13;100.00
52105;BME280;38103;42.776;23.112;2023-04-23T05:46:03;94010.66;;;8.25;100.00
52105;BME280;38103;42.776;23.112;2023-04-23T05:48:31;94002.50;;;8.71;100.00
52105;BME280;38103;42.776;23.112;2023-04-23T05:50:57;94006.81;;;8.65;100.00
52105;BME280;38103;42.776;23.112;2023-04-23T05:53:22;94009.66;;;9.13;100.00
52105;BME280;38103;42.776;23.112;2023-04-23T05:55:48;94006.25;;;9.56;100.00
52105;BME280;38103;42.776;23.112;2023-04-23T05:58:13;94016.00;;;9.79;100.00
52105;BME280;38103;42.776;23.112;2023-04-23T06:00:40;94009.03;;;10.09;100.00
52105;BME280;38103;42.776;23.112;2023-04-23T06:03:05;93998.66;;;10.68;100.00
52105;BME280;38103;42.776;23.112;2023-04-23T06:05:31;94018.13;;;10.91;100.00
52105;BME280;38103;42.776;23.112;2023-04-23T06:07:56;94014.66;;;10.61;100.00
52105;BME280;38103;42.776;23.112;2023-04-23T06:10:22;94013.59;;;11.03;100.00
52105;BME280;38103;42.776;23.112;2023-04-23T06:12:47;94011.25;;;11.48;100.00
52105;BME280;38103;42.776;23.112;2023-04-23T06:15:13;94013.97;;;11.88;100.00
52105;BME280;38103;42.776;23.112;2023-04-23T06:17:38;94016.09;;;12.21;100.00
52105;BME280;38103;42.776;23.112;2023-04-23T06:20:04;94018.50;;;12.62;100.00
52105;BME280;38103;42.776;23.112;2023-04-23T06:22:30;94011.03;;;12.59;80.01
52105;BME280;38103;42.776;23.112;2023-04-23T06:24:56;94003.56;;;12.78;71.75
52105;BME280;38103;42.776;23.112;2023-04-23T06:27:22;94011.44;;;12.68;72.66
52105;BME280;38103;42.776;23.112;2023-04-23T06:29:47;94012.66;;;12.43;71.91
52105;BME280;38103;42.776;23.112;2023-04-23T06:32:12;94011.50;;;12.73;71.58
52105;BME280;38103;42.776;23.112;2023-04-23T06:34:38;94009.88;;;13.22;71.93
52105;BME280;38103;42.776;23.112;2023-04-23T06:37:03;94017.19;;;12.25;72.44
52105;BME280;38103;42.776;23.112;2023-04-23T06:39:29;94008.69;;;12.23;72.63
52105;BME280;38103;42.776;23.112;2023-04-23T06:41:54;94012.31;;;12.34;73.47
52105;BME280;38103;42.776;23.112;2023-04-23T06:44:20;93997.28;;;11.53;77.87
52105;BME280;38103;42.776;23.112;2023-04-23T06:46:46;94003.38;;;11.88;75.04
52105;BME280;38103;42.776;23.112;2023-04-23T06:49:11;94008.69;;;11.24;78.09
52105;BME280;38103;42.776;23.112;2023-04-23T06:51:36;94002.91;;;11.57;78.17
52105;BME280;38103;42.776;23.112;2023-04-23T06:54:02;94000.66;;;11.83;76.58
52105;BME280;38103;42.776;23.112;2023-04-23T06:56:27;94014.78;;;11.71;76.38
52105;BME280;38103;42.776;23.112;2023-04-23T06:58:53;94013.72;;;11.55;78.88
52105;BME280;38103;42.776;23.112;2023-04-23T07:01:18;94007.72;;;11.60;79.58
52105;BME280;38103;42.776;23.112;2023-04-23T07:03:43;94002.19;;;11.79;78.11
52105;BME280;38103;42.776;23.112;2023-04-23T07:06:13;94009.75;;;11.70;78.10
52105;BME280;38103;42.776;23.112;2023-04-23T07:08:39;94014.31;;;10.99;80.68
52105;BME280;38103;42.776;23.112;2023-04-23T07:11:05;94008.97;;;11.40;80.82
52105;BME280;38103;42.776;23.112;2023-04-23T07:13:31;94013.63;;;11.50;79.91
52105;BME280;38103;42.776;23.112;2023-04-23T07:15:56;94006.03;;;11.88;79.03
52105;BME280;38103;42.776;23.112;2023-04-23T07:18:22;94010.94;;;11.62;77.03
52105;BME280;38103;42.776;23.112;2023-04-23T07:20:47;94009.97;;;11.22;80.96
52105;BME280;38103;42.776;23.112;2023-04-23T07:23:12;94009.50;;;11.25;80.49
52105;BME280;38103;42.776;23.112;2023-04-23T07:25:38;93991.81;;;11.60;79.51
52105;BME280;38103;42.776;23.112;2023-04-23T07:28:03;93996.91;;;11.79;78.66
52105;BME280;38103;42.776;23.112;2023-04-23T07:30:29;93996.34;;;11.77;79.03
52105;BME280;38103;42.776;23.112;2023-04-23T07:32:55;93997.94;;;11.78;78.26
52105;BME280;38103;42.776;23.112;2023-04-23T07:35:20;93996.00;;;12.07;78.16
52105;BME280;38103;42.776;23.112;2023-04-23T07:37:46;93998.03;;;12.17;77.26
52105;BME280;38103;42.776;23.112;2023-04-23T07:40:12;94008.53;;;12.12;77.36
52105;BME280;38103;42.776;23.112;2023-04-23T07:42:37;93996.31;;;12.11;75.88
52105;BME280;38103;42.776;23.112;2023-04-23T07:45:04;93957.94;;;12.14;74.72
52105;BME280;38103;42.776;23.112;2023-04-23T07:47:30;94001.22;;;12.59;74.26
52105;BME280;38103;42.776;23.112;2023-04-23T07:49:55;94007.41;;;12.88;72.13
52105;BME280;38103;42.776;23.112;2023-04-23T07:52:20;93999.13;;;13.06;72.56
52105;BME280;38103;42.776;23.112;2023-04-23T07:54:46;93996.78;;;12.88;73.02
52105;BME280;38103;42.776;23.112;2023-04-23T07:57:11;93995.41;;;13.07;72.53
52105;BME280;38103;42.776;23.112;2023-04-23T07:59:37;94000.44;;;13.32;71.76
52105;BME280;38103;42.776;23.112;2023-04-23T08:02:05;93998.09;;;12.85;72.66
52105;BME280;38103;42.776;23.112;2023-04-23T08:04:31;94007.94;;;13.12;71.85
52105;BME280;38103;42.776;23.112;2023-04-23T08:06:56;93996.22;;;13.36;72.75
52105;BME280;38103;42.776;23.112;2023-04-23T08:09:22;94003.38;;;13.58;69.13
52105;BME280;38103;42.776;23.112;2023-04-23T08:11:48;93999.09;;;13.90;70.28
52105;BME280;38103;42.776;23.112;2023-04-23T08:14:13;94006.72;;;13.53;70.08
52105;BME280;38103;42.776;23.112;2023-04-23T08:16:39;94005.31;;;13.17;71.90
52105;BME280;38103;42.776;23.112;2023-04-23T08:19:04;94001.78;;;12.61;73.21
52105;BME280;38103;42.776;23.112;2023-04-23T08:21:32;93992.59;;;12.92;72.23
52105;BME280;38103;42.776;23.112;2023-04-23T08:23:58;93992.81;;;13.13;74.31
52105;BME280;38103;42.776;23.112;2023-04-23T08:26:24;93990.47;;;13.44;70.16
52105;BME280;38103;42.776;23.112;2023-04-23T08:28:49;93989.06;;;12.63;73.28
52105;BME280;38103;42.776;23.112;2023-04-23T08:31:15;93988.69;;;13.00;73.30
52105;BME280;38103;42.776;23.112;2023-04-23T08:33:41;93985.00;;;13.01;71.78
52105;BME280;38103;42.776;23.112;2023-04-23T08:36:07;93981.25;;;12.74;72.87
52105;BME280;38103;42.776;23.112;2023-04-23T08:38:32;93981.25;;;12.74;71.94
52105;BME280;38103;42.776;23.112;2023-04-23T08:40:58;93979.25;;;12.87;71.65
52105;BME280;38103;42.776;23.112;2023-04-23T08:46:13;93977.13;;;13.39;71.21
52105;BME280;38103;42.776;23.112;2023-04-23T08:48:40;93940.72;;;13.62;69.79
52105;BME280;38103;42.776;23.112;2023-04-23T08:51:08;93971.50;;;13.58;68.86
52105;BME280;38103;42.776;23.112;2023-04-23T08:53:34;93933.31;;;13.69;70.81
52105;BME280;38103;42.776;23.112;2023-04-23T08:56:01;93975.66;;;14.19;66.20
52105;BME280;38103;42.776;23.112;2023-04-23T08:58:27;93972.84;;;13.99;66.95
52105;BME280;38103;42.776;23.112;2023-04-23T09:00:54;93938.81;;;13.95;64.00
52105;BME280;38103;42.776;23.112;2023-04-23T09:03:22;93938.50;;;14.35;67.08
52105;BME280;38103;42.776;23.112;2023-04-23T09:05:50;93941.91;;;14.25;68.14
52105;BME280;38103;42.776;23.112;2023-04-23T09:08:16;93962.94;;;14.27;67.23
52105;BME280;38103;42.776;23.112;2023-04-23T09:10:42;93963.00;;;14.43;62.84
52105;BME280;38103;42.776;23.112;2023-04-23T09:13:08;93961.41;;;14.41;66.14
52105;BME280;38103;42.776;23.112;2023-04-23T09:15:35;93968.25;;;14.27;66.16
52105;BME280;38103;42.776;23.112;2023-04-23T09:18:04;93960.88;;;13.96;64.18
52105;BME280;38103;42.776;23.112;2023-04-23T09:20:31;93956.75;;;13.78;64.49
52105;BME280;38103;42.776;23.112;2023-04-23T09:22:56;93953.22;;;13.67;65.64
52105;BME280;38103;42.776;23.112;2023-04-23T09:25:23;93947.44;;;13.42;64.13
52105;BME280;38103;42.776;23.112;2023-04-23T09:27:49;93950.59;;;13.39;65.22
52105;BME280;38103;42.776;23.112;2023-04-23T09:30:16;93940.56;;;13.79;70.06
52105;BME280;38103;42.776;23.112;2023-04-23T09:32:43;93941.53;;;13.35;66.01
52105;BME280;38103;42.776;23.112;2023-04-23T09:35:12;93929.03;;;13.63;66.76
52105;BME280;38103;42.776;23.112;2023-04-23T09:37:40;93946.81;;;14.01;64.64
52105;BME280;38103;42.776;23.112;2023-04-23T09:40:06;93935.69;;;13.66;63.19
52105;BME280;38103;42.776;23.112;2023-04-23T09:42:35;93932.13;;;13.88;65.29
52105;BME280;38103;42.776;23.112;2023-04-23T09:45:06;93936.22;;;14.06;61.75
52105;BME280;38103;42.776;23.112;2023-04-23T09:47:40;93933.56;;;14.06;64.29
52105;BME280;38103;42.776;23.112;2023-04-23T09:50:08;93932.09;;;14.31;60.17
52105;BME280;38103;42.776;23.112;2023-04-23T09:52:39;93925.81;;;14.53;59.53
52105;BME280;38103;42.776;23.112;2023-04-23T09:55:06;93928.25;;;14.06;60.17
52105;BME280;38103;42.776;23.112;2023-04-23T09:57:44;93927.19;;;14.12;62.46
52105;BME280;38103;42.776;23.112;2023-04-23T10:00:18;93922.56;;;14.35;59.83
52105;BME280;38103;42.776;23.112;2023-04-23T10:02:48;93914.28;;;14.32;57.59
52105;BME280;38103;42.776;23.112;2023-04-23T10:05:16;93914.59;;;14.35;57.94
52105;BME280;38103;42.776;23.112;2023-04-23T10:07:43;93907.09;;;14.27;57.62
52105;BME280;38103;42.776;23.112;2023-04-23T10:10:10;93908.22;;;14.41;57.14
52105;BME280;38103;42.776;23.112;2023-04-23T10:12:35;93903.34;;;14.28;55.74
52105;BME280;38103;42.776;23.112;2023-04-23T10:15:05;93901.84;;;14.43;58.60
52105;BME280;38103;42.776;23.112;2023-04-23T10:17:31;93899.22;;;14.53;55.24
52105;BME280;38103;42.776;23.112;2023-04-23T10:19:59;93901.66;;;14.65;55.39
52105;BME280;38103;42.776;23.112;2023-04-23T10:22:28;93896.53;;;14.43;55.61
52105;BME280;38103;42.776;23.112;2023-04-23T10:24:55;93888.47;;;14.27;57.05
52105;BME280;38103;42.776;23.112;2023-04-23T10:27:30;93890.13;;;14.44;53.95
52105;BME280;38103;42.776;23.112;2023-04-23T10:29:59;93886.53;;;14.81;57.36
52105;BME280;38103;42.776;23.112;2023-04-23T10:32:26;93827.41;;;14.79;56.26
52105;BME280;38103;42.776;23.112;2023-04-23T10:34:52;93872.75;;;15.05;51.61
52105;BME280;38103;42.776;23.112;2023-04-23T10:37:18;93859.72;;;15.25;53.98
52105;BME280;38103;42.776;23.112;2023-04-23T10:39:46;93830.13;;;14.95;50.62
52105;BME280;38103;42.776;23.112;2023-04-23T10:42:14;93852.50;;;14.89;47.85
52105;BME280;38103;42.776;23.112;2023-04-23T10:44:41;93849.31;;;15.13;51.83
52105;BME280;38103;42.776;23.112;2023-04-23T10:47:13;93805.41;;;15.00;48.57
52105;BME280;38103;42.776;23.112;2023-04-23T10:49:39;93835.47;;;15.37;47.78
52105;BME280;38103;42.776;23.112;2023-04-23T10:52:15;93826.41;;;15.48;49.43
52105;BME280;38103;42.776;23.112;2023-04-23T10:54:42;93815.75;;;15.48;48.36
52105;BME280;38103;42.776;23.112;2023-04-23T10:57:09;93822.16;;;15.32;49.24
52105;BME280;38103;42.776;23.112;2023-04-23T10:59:40;93799.28;;;15.20;46.24
52105;BME280;38103;42.776;23.112;2023-04-23T11:02:11;93811.50;;;15.42;42.17
52105;BME280;38103;42.776;23.112;2023-04-23T11:04:53;93795.50;;;15.52;45.94
52105;BME280;38103;42.776;23.112;2023-04-23T11:07:19;93788.56;;;15.51;47.07
52105;BME280;38103;42.776;23.112;2023-04-23T11:09:47;93811.47;;;15.58;47.54
52105;BME280;38103;42.776;23.112;2023-04-23T11:12:33;93806.13;;;15.63;46.63
52105;BME280;38103;42.776;23.112;2023-04-23T11:15:09;93805.03;;;15.74;46.52
52105;BME280;38103;42.776;23.112;2023-04-23T11:22:35;93804.41;;;15.98;40.98
52105;BME280;38103;42.776;23.112;2023-04-23T11:25:02;93803.91;;;15.96;42.70
52105;BME280;38103;42.776;23.112;2023-04-23T11:27:29;93779.91;;;15.91;42.13
52105;BME280;38103;42.776;23.112;2023-04-23T11:29:56;93800.66;;;16.21;40.19
52105;BME280;38103;42.776;23.112;2023-04-23T11:32:21;93805.19;;;16.15;36.60
52105;BME280;38103;42.776;23.112;2023-04-23T11:34:47;93804.94;;;16.11;41.38
52105;BME280;38103;42.776;23.112;2023-04-23T11:37:15;93794.31;;;15.90;37.31
52105;BME280;38103;42.776;23.112;2023-04-23T11:39:43;93792.66;;;16.15;36.70
52105;BME280;38103;42.776;23.112;2023-04-23T11:42:12;93792.59;;;16.31;36.05
52105;BME280;38103;42.776;23.112;2023-04-23T11:44:38;93771.72;;;16.44;40.00
52105;BME280;38103;42.776;23.112;2023-04-23T11:47:09;93787.69;;;16.49;37.87
52105;BME280;38103;42.776;23.112;2023-04-23T11:49:36;93790.38;;;16.49;37.00
52105;BME280;38103;42.776;23.112;2023-04-23T11:52:02;93787.75;;;16.38;36.88
52105;BME280;38103;42.776;23.112;2023-04-23T11:54:28;93790.56;;;16.02;37.50
52105;BME280;38103;42.776;23.112;2023-04-23T11:56:54;93770.34;;;15.85;37.86
52105;BME280;38103;42.776;23.112;2023-04-23T11:59:20;93786.28;;;16.06;37.53
52105;BME280;38103;42.776;23.112;2023-04-23T12:01:49;93788.34;;;16.25;38.98
52105;BME280;38103;42.776;23.112;2023-04-23T12:04:19;93790.50;;;16.23;35.88
52105;BME280;38103;42.776;23.112;2023-04-23T12:06:46;93784.00;;;16.39;40.16
52105;BME280;38103;42.776;23.112;2023-04-23T12:09:13;93781.16;;;16.66;36.56
52105;BME280;38103;42.776;23.112;2023-04-23T12:11:43;93772.63;;;16.69;36.04
52105;BME280;38103;42.776;23.112;2023-04-23T12:14:09;93784.88;;;16.75;35.45
52105;BME280;38103;42.776;23.112;2023-04-23T12:16:40;93779.88;;;16.58;33.68
52105;BME280;38103;42.776;23.112;2023-04-23T12:19:07;93779.34;;;16.61;35.27
52105;BME280;38103;42.776;23.112;2023-04-23T12:21:33;93778.41;;;16.81;36.63
52105;BME280;38103;42.776;23.112;2023-04-23T12:24:02;93779.44;;;16.85;38.13
52105;BME280;38103;42.776;23.112;2023-04-23T12:26:27;93777.19;;;17.03;38.29
52105;BME280;38103;42.776;23.112;2023-04-23T12:28:55;93772.53;;;16.79;33.58
52105;BME280;38103;42.776;23.112;2023-04-23T12:31:27;93766.38;;;16.84;35.38
52105;BME280;38103;42.776;23.112;2023-04-23T12:34:06;93768.38;;;17.03;36.26
52105;BME280;38103;42.776;23.112;2023-04-23T12:36:33;93731.88;;;16.93;34.98
52105;BME280;38103;42.776;23.112;2023-04-23T12:39:18;93761.13;;;17.08;34.26
52105;BME280;38103;42.776;23.112;2023-04-23T12:41:45;93756.97;;;16.92;33.36
52105;BME280;38103;42.776;23.112;2023-04-23T12:44:10;93755.97;;;16.82;33.34
52105;BME280;38103;42.776;23.112;2023-04-23T12:46:36;93745.84;;;16.79;36.21
52105;BME280;38103;42.776;23.112;2023-04-23T12:49:01;93745.56;;;16.81;36.24
52105;BME280;38103;42.776;23.112;2023-04-23T12:51:27;93743.66;;;16.86;37.56
52105;BME280;38103;42.776;23.112;2023-04-23T12:53:52;93742.03;;;16.85;37.08